createdAt,value
2017-10-03T00:00:01.765Z,7.23
2017-10-03T00:02:04.536Z,7.57
2017-10-03T00:04:07.237Z,7.50
2017-10-03T00:06:09.915Z,8.90
2017-10-03T00:08:12.767Z,7.47
2017-10-03T00:10:15.549Z,8.63
2017-10-03T00:12:18.215Z,8.40
2017-10-03T00:14:21.049Z,7.23
2017-10-03T00:16:23.716Z,7.90
2017-10-03T00:18:26.375Z,8.47
2017-10-03T00:20:29.202Z,8.73
2017-10-03T00:22:32.612Z,8.97
2017-10-03T00:24:35.405Z,7.90
2017-10-03T00:26:38.073Z,10.03
2017-10-03T00:28:40.733Z,8.37
2017-10-03T00:30:45.371Z,8.00
2017-10-03T00:32:48.042Z,7.43
2017-10-03T00:34:50.856Z,9.17
2017-10-03T00:36:53.597Z,7.73
2017-10-03T00:38:56.367Z,8.20
2017-10-03T00:40:59.878Z,8.70
2017-10-03T00:43:02.567Z,9.00
2017-10-03T00:45:05.318Z,7.93
2017-10-03T00:47:08.880Z,8.30
2017-10-03T00:49:11.565Z,8.37
2017-10-03T00:51:14.380Z,9.23
2017-10-03T00:53:17.037Z,8.40
2017-10-03T00:55:20.551Z,8.97
2017-10-03T00:57:23.224Z,8.83
2017-10-03T00:59:26.019Z,10.30
2017-10-03T01:01:28.931Z,10.00
2017-10-03T01:03:31.681Z,9.83
2017-10-03T01:05:34.459Z,9.13
2017-10-03T01:07:37.268Z,10.27
2017-10-03T01:09:40.016Z,11.20
2017-10-03T01:11:42.806Z,11.80
2017-10-03T01:13:45.471Z,10.67
2017-10-03T01:15:48.140Z,10.77
2017-10-03T01:17:50.863Z,10.10
2017-10-03T01:19:53.544Z,9.37
2017-10-03T01:21:56.379Z,10.43
2017-10-03T01:23:59.079Z,9.30
2017-10-03T01:26:01.785Z,9.03
2017-10-03T01:28:04.584Z,8.27
2017-10-03T01:30:08.020Z,10.43
2017-10-03T01:32:10.871Z,10.37
2017-10-03T01:34:13.580Z,9.97
2017-10-03T01:36:16.256Z,10.43
2017-10-03T01:38:19.120Z,10.37
2017-10-03T01:40:21.782Z,9.60
2017-10-03T01:42:24.474Z,9.30
2017-10-03T01:44:27.353Z,8.90
2017-10-03T01:46:30.137Z,8.57
2017-10-03T01:48:32.809Z,8.17
2017-10-03T01:50:35.558Z,7.07
2017-10-03T01:52:39.081Z,6.77
2017-10-03T01:54:41.960Z,6.87
2017-10-03T01:56:44.620Z,8.20
2017-10-03T01:58:48.132Z,8.00
2017-10-03T02:00:50.847Z,7.40
2017-10-03T02:02:53.548Z,7.60
2017-10-03T02:04:57.309Z,6.90
2017-10-03T02:06:59.986Z,7.50
2017-10-03T02:09:02.664Z,6.97
2017-10-03T02:11:05.360Z,6.47
2017-10-03T02:13:08.000Z,7.00
2017-10-03T02:15:10.806Z,6.70
2017-10-03T02:17:13.521Z,5.93
2017-10-03T02:19:16.941Z,5.60
2017-10-03T02:21:19.688Z,5.47
2017-10-03T02:23:23.100Z,5.90
2017-10-03T02:25:25.847Z,5.60
2017-10-03T02:27:28.525Z,5.93
2017-10-03T02:29:31.199Z,6.40
2017-10-03T02:31:33.921Z,6.07
2017-10-03T02:33:36.606Z,5.80
2017-10-03T02:35:39.301Z,5.60
2017-10-03T02:37:41.971Z,5.53
2017-10-03T02:39:44.757Z,6.40
2017-10-03T02:41:47.710Z,5.50
2017-10-03T02:43:50.354Z,5.93
2017-10-03T02:45:53.951Z,6.80
2017-10-03T02:47:57.383Z,6.30
2017-10-03T02:50:00.223Z,5.40
2017-10-03T02:52:03.887Z,6.13
2017-10-03T02:54:06.555Z,6.10
2017-10-03T02:56:09.517Z,6.57
2017-10-03T02:58:12.190Z,5.80
2017-10-03T03:00:15.070Z,6.20
2017-10-03T03:02:17.770Z,6.10
2017-10-03T03:04:20.440Z,6.30
2017-10-03T03:06:23.204Z,6.77
2017-10-03T03:08:25.985Z,7.53
2017-10-03T03:10:28.760Z,7.57
2017-10-03T03:12:31.500Z,7.47
2017-10-03T03:14:34.937Z,7.00
2017-10-03T03:16:37.618Z,7.90
2017-10-03T03:18:40.305Z,7.40
2017-10-03T03:20:43.718Z,8.07
2017-10-03T03:22:46.522Z,8.20
2017-10-03T03:24:49.962Z,9.40
2017-10-03T03:26:53.138Z,9.37
2017-10-03T03:28:56.590Z,8.90
2017-10-03T03:30:59.446Z,9.33
2017-10-03T03:33:02.174Z,9.87
2017-10-03T03:35:04.872Z,9.30
2017-10-03T03:37:07.604Z,9.73
2017-10-03T03:39:10.264Z,11.03
2017-10-03T03:41:12.947Z,9.83
2017-10-03T03:43:15.628Z,9.43
2017-10-03T03:45:19.861Z,10.93
2017-10-03T03:47:22.675Z,9.47
2017-10-03T03:49:25.330Z,9.43
2017-10-03T03:51:28.052Z,9.20
2017-10-03T03:53:30.725Z,8.87
2017-10-03T03:55:33.386Z,9.70
2017-10-03T03:57:36.124Z,8.80
2017-10-03T03:59:39.549Z,8.47
2017-10-03T04:01:42.397Z,8.80
2017-10-03T04:03:45.810Z,10.20
2017-10-03T04:05:48.551Z,10.33
2017-10-03T04:07:52.174Z,11.67
2017-10-03T04:09:55.609Z,10.60
2017-10-03T04:11:58.502Z,10.27
2017-10-03T04:14:01.211Z,10.60
2017-10-03T04:16:04.735Z,11.80
2017-10-03T04:18:07.434Z,10.77
2017-10-03T04:20:10.171Z,11.80
2017-10-03T04:22:13.643Z,12.13
2017-10-03T04:24:16.289Z,15.30
2017-10-03T04:26:19.105Z,14.40
2017-10-03T04:28:23.254Z,14.90
2017-10-03T04:30:25.916Z,15.53
2017-10-03T04:32:28.595Z,15.77
2017-10-03T04:34:31.243Z,16.83
2017-10-03T04:36:33.947Z,17.53
2017-10-03T04:38:36.839Z,17.83
2017-10-03T04:40:39.484Z,18.77
2017-10-03T04:42:42.963Z,16.40
2017-10-03T04:44:45.604Z,17.47
2017-10-03T04:46:48.307Z,16.87
2017-10-03T04:48:51.012Z,17.50
2017-10-03T04:50:54.455Z,16.30
2017-10-03T04:52:57.161Z,15.83
2017-10-03T04:54:59.850Z,15.43
2017-10-03T04:57:03.380Z,16.57
2017-10-03T04:59:06.067Z,14.23
2017-10-03T05:01:08.835Z,13.40
2017-10-03T05:03:11.555Z,14.10
2017-10-03T05:05:14.214Z,15.07
2017-10-03T05:07:16.953Z,16.20
2017-10-03T05:09:21.620Z,15.20
2017-10-03T05:11:24.278Z,13.77
2017-10-03T05:13:27.003Z,13.07
2017-10-03T05:15:29.676Z,14.20
2017-10-03T05:17:32.376Z,14.03
2017-10-03T05:19:35.916Z,13.73
2017-10-03T05:21:38.570Z,14.90
2017-10-03T05:23:41.221Z,14.07
2017-10-03T05:25:44.667Z,14.10
2017-10-03T05:27:47.375Z,13.23
2017-10-03T05:29:50.115Z,10.40
2017-10-03T05:31:52.798Z,11.93
2017-10-03T05:33:55.513Z,11.00
2017-10-03T05:35:58.962Z,10.30
2017-10-03T05:38:01.641Z,10.20
2017-10-03T05:40:04.330Z,9.30
2017-10-03T05:42:07.016Z,9.80
2017-10-03T05:44:09.747Z,10.70
2017-10-03T05:46:12.406Z,9.60
2017-10-03T05:48:15.098Z,10.10
2017-10-03T05:50:17.875Z,9.30
2017-10-03T05:52:20.560Z,9.03
2017-10-03T05:54:23.255Z,9.20
2017-10-03T05:56:26.130Z,9.17
2017-10-03T05:58:28.889Z,9.50
2017-10-03T06:00:31.666Z,9.23
2017-10-03T06:02:34.507Z,8.73
2017-10-03T06:04:37.167Z,8.80
2017-10-03T06:06:39.971Z,7.60
2017-10-03T06:08:43.409Z,9.00
2017-10-03T06:10:46.077Z,8.30
2017-10-03T06:12:48.792Z,7.73
2017-10-03T06:14:51.525Z,8.47
2017-10-03T06:16:54.255Z,7.60
2017-10-03T06:18:56.943Z,7.90
2017-10-03T06:21:00.454Z,8.10
2017-10-03T06:23:03.262Z,7.10
2017-10-03T06:25:05.947Z,7.23
2017-10-03T06:27:08.604Z,7.33
2017-10-03T06:29:11.274Z,7.60
2017-10-03T06:31:13.959Z,7.37
2017-10-03T06:33:16.702Z,7.00
2017-10-03T06:35:19.359Z,7.43
2017-10-03T06:37:22.057Z,7.97
2017-10-03T06:39:25.551Z,6.23
2017-10-03T06:41:28.980Z,6.70
2017-10-03T06:43:31.726Z,6.40
2017-10-03T06:45:35.167Z,6.67
2017-10-03T06:47:37.875Z,7.27
2017-10-03T06:49:42.165Z,5.43
2017-10-03T06:51:44.930Z,6.03
2017-10-03T06:53:47.593Z,5.50
2017-10-03T06:55:50.285Z,6.07
2017-10-03T06:57:53.037Z,5.23
2017-10-03T06:59:55.677Z,5.40
2017-10-03T07:01:58.344Z,4.93
2017-10-03T07:04:01.076Z,5.63
2017-10-03T07:06:03.738Z,5.77
2017-10-03T07:08:06.407Z,5.50
2017-10-03T07:10:09.162Z,5.07
2017-10-03T07:12:11.842Z,5.80
2017-10-03T07:14:14.552Z,6.90
2017-10-03T07:16:17.330Z,5.77
2017-10-03T07:18:20.068Z,5.77
2017-10-03T07:20:22.855Z,5.70
2017-10-03T07:22:26.282Z,6.57
2017-10-03T07:24:29.026Z,6.30
2017-10-03T07:26:31.690Z,6.77
2017-10-03T07:28:34.356Z,6.30
2017-10-03T07:30:37.198Z,6.70
2017-10-03T07:32:39.859Z,6.17
2017-10-03T07:34:42.510Z,6.77
2017-10-03T07:36:45.380Z,6.37
2017-10-03T07:38:48.817Z,6.27
2017-10-03T07:40:51.468Z,6.50
2017-10-03T07:42:54.939Z,6.27
2017-10-03T07:44:57.569Z,5.87
2017-10-03T07:47:00.448Z,6.17
2017-10-03T07:49:03.227Z,6.07
2017-10-03T07:51:05.894Z,5.73
2017-10-03T07:53:08.681Z,6.10
2017-10-03T07:55:11.366Z,6.03
2017-10-03T07:57:14.162Z,6.50
2017-10-03T07:59:16.917Z,6.00
2017-10-03T08:01:19.617Z,7.40
2017-10-03T08:03:22.369Z,6.90
2017-10-03T08:05:25.056Z,6.40
2017-10-03T08:07:27.766Z,7.70
2017-10-03T08:09:30.516Z,6.00
2017-10-03T08:11:33.875Z,5.70
2017-10-03T08:13:36.582Z,12.73
2017-10-03T08:15:39.350Z,5.30
2017-10-03T08:17:42.204Z,6.30
2017-10-03T08:19:45.855Z,5.90
2017-10-03T08:21:48.509Z,5.40
2017-10-03T08:23:51.273Z,6.40
2017-10-03T08:25:53.955Z,6.00
2017-10-03T08:27:56.624Z,6.00
2017-10-03T08:29:59.364Z,5.83
2017-10-03T08:32:02.048Z,5.37
2017-10-03T08:34:04.710Z,5.80
2017-10-03T08:36:07.376Z,5.03
2017-10-03T08:38:10.060Z,5.07
2017-10-03T08:40:12.696Z,5.40
2017-10-03T08:42:15.363Z,4.97
2017-10-03T08:44:18.028Z,4.97
2017-10-03T08:46:20.828Z,5.13
2017-10-03T08:48:23.484Z,5.50
2017-10-03T08:50:28.685Z,6.50
2017-10-03T08:52:31.411Z,5.57
2017-10-03T08:54:38.060Z,5.53
2017-10-03T08:56:41.529Z,5.20
2017-10-03T08:58:44.468Z,7.33
2017-10-03T09:00:47.104Z,6.63
2017-10-03T09:02:50.743Z,5.83
2017-10-03T09:04:53.416Z,4.43
2017-10-03T09:06:56.186Z,4.70
2017-10-03T09:08:58.883Z,4.90
2017-10-03T09:11:01.539Z,5.20
2017-10-03T09:13:04.214Z,5.07
2017-10-03T09:15:06.923Z,5.13
2017-10-03T09:17:09.570Z,5.50
2017-10-03T09:19:12.542Z,4.80
2017-10-03T09:21:15.240Z,5.40
2017-10-03T09:23:17.898Z,5.80
2017-10-03T09:25:20.570Z,5.20
2017-10-03T09:27:23.303Z,5.70
2017-10-03T09:29:26.030Z,4.60
2017-10-03T09:31:28.827Z,5.40
2017-10-03T09:33:31.492Z,5.30
2017-10-03T09:35:34.266Z,4.20
2017-10-03T09:37:36.918Z,4.50
2017-10-03T09:39:40.438Z,5.93
2017-10-03T09:41:43.724Z,5.17
2017-10-03T09:43:46.397Z,5.67
2017-10-03T09:45:49.086Z,4.97
2017-10-03T09:47:51.738Z,4.90
2017-10-03T09:49:54.532Z,4.70
2017-10-03T09:51:57.708Z,4.77
2017-10-03T09:54:00.349Z,5.00
2017-10-03T09:56:03.072Z,4.97
2017-10-03T09:58:06.215Z,4.57
2017-10-03T10:00:08.921Z,4.80
2017-10-03T10:02:12.363Z,4.70
2017-10-03T10:04:15.231Z,4.40
2017-10-03T10:06:17.975Z,4.77
2017-10-03T10:08:20.648Z,4.20
2017-10-03T10:10:23.405Z,4.47
2017-10-03T10:12:26.921Z,4.17
2017-10-03T10:14:29.584Z,3.93
2017-10-03T10:16:33.080Z,5.37
2017-10-03T10:18:36.505Z,3.70
2017-10-03T10:20:39.199Z,4.40
2017-10-03T10:22:42.010Z,4.30
2017-10-03T10:24:44.666Z,4.83
2017-10-03T10:26:47.429Z,3.33
2017-10-03T10:28:50.132Z,3.70
2017-10-03T10:30:52.876Z,3.93
2017-10-03T10:32:55.585Z,3.80
2017-10-03T10:34:58.272Z,4.60
2017-10-03T10:37:00.976Z,4.00
2017-10-03T10:39:03.702Z,3.40
2017-10-03T10:41:06.452Z,3.87
2017-10-03T10:43:09.231Z,4.20
2017-10-03T10:45:12.027Z,3.90
2017-10-03T10:47:14.770Z,3.80
2017-10-03T10:49:18.089Z,3.20
2017-10-03T10:51:20.754Z,4.37
2017-10-03T10:53:23.703Z,3.37
2017-10-03T10:55:26.504Z,3.20
2017-10-03T10:57:29.175Z,3.63
2017-10-03T10:59:31.850Z,3.80
2017-10-03T11:01:34.543Z,3.10
2017-10-03T11:03:37.397Z,3.30
2017-10-03T11:05:40.846Z,3.50
2017-10-03T11:07:43.496Z,2.67
2017-10-03T11:09:46.197Z,3.07
2017-10-03T11:11:48.877Z,2.97
2017-10-03T11:13:51.605Z,3.20
2017-10-03T11:15:55.042Z,3.27
2017-10-03T11:17:57.738Z,3.47
2017-10-03T11:20:00.392Z,3.00
2017-10-03T11:22:03.055Z,3.33
2017-10-03T11:24:17.661Z,3.23
2017-10-03T11:26:20.579Z,2.80
2017-10-03T11:28:23.283Z,3.10
2017-10-03T11:30:26.040Z,2.77
2017-10-03T11:32:28.798Z,3.37
2017-10-03T11:34:32.799Z,2.93
2017-10-03T11:36:36.450Z,3.40
2017-10-03T11:38:39.120Z,2.97
2017-10-03T11:40:41.757Z,2.50
2017-10-03T11:42:44.437Z,3.00
2017-10-03T11:44:47.089Z,3.13
2017-10-03T11:46:50.654Z,4.47
2017-10-03T11:48:54.139Z,3.20
2017-10-03T11:50:56.879Z,3.83
2017-10-03T11:52:59.606Z,3.53
2017-10-03T11:55:02.486Z,2.37
2017-10-03T11:57:05.387Z,2.60
2017-10-03T11:59:08.039Z,2.67
2017-10-03T12:01:10.751Z,26.27
2017-10-03T12:03:14.157Z,6.63
2017-10-03T12:05:17.597Z,3.47
2017-10-03T12:07:20.345Z,2.83
2017-10-03T12:09:23.001Z,9.20
2017-10-03T12:11:26.537Z,3.53
2017-10-03T12:13:29.224Z,3.17
2017-10-03T12:15:31.891Z,3.10
2017-10-03T12:17:34.584Z,2.83
2017-10-03T12:19:37.434Z,3.30
2017-10-03T12:21:40.109Z,2.37
2017-10-03T12:23:42.888Z,2.83
2017-10-03T12:25:45.719Z,3.10
2017-10-03T12:27:48.429Z,2.80
2017-10-03T12:29:52.784Z,3.70
2017-10-03T12:31:55.576Z,3.53
2017-10-03T12:33:59.865Z,4.07
2017-10-03T12:36:02.671Z,4.63
2017-10-03T12:38:05.372Z,4.40
2017-10-03T12:40:09.647Z,7.30
2017-10-03T12:42:13.453Z,3.30
2017-10-03T12:44:17.348Z,3.20
2017-10-03T12:46:21.166Z,3.17
2017-10-03T12:48:25.014Z,3.27
2017-10-03T12:50:28.429Z,2.70
2017-10-03T12:52:32.305Z,4.00
2017-10-03T12:54:35.731Z,3.23
2017-10-03T12:56:39.597Z,2.73
2017-10-03T12:58:42.353Z,3.27
2017-10-03T13:00:45.013Z,2.57
2017-10-03T13:02:49.273Z,3.17
2017-10-03T13:04:52.715Z,3.50
2017-10-03T13:06:55.416Z,2.60
2017-10-03T13:08:58.107Z,2.80
2017-10-03T13:11:01.539Z,2.20
2017-10-03T13:13:04.200Z,2.80
2017-10-03T13:15:06.887Z,2.73
2017-10-03T13:17:09.719Z,2.43
2017-10-03T13:19:12.396Z,2.67
2017-10-03T13:21:15.107Z,2.30
2017-10-03T13:23:17.835Z,2.80
2017-10-03T13:25:21.265Z,2.50
2017-10-03T13:27:24.790Z,3.07
2017-10-03T13:29:27.464Z,3.37
2017-10-03T13:31:30.238Z,3.00
2017-10-03T13:33:33.026Z,3.00
2017-10-03T13:35:35.692Z,3.00
2017-10-03T13:37:38.337Z,3.50
2017-10-03T13:39:41.000Z,3.00
2017-10-03T13:41:43.654Z,2.67
2017-10-03T13:43:46.350Z,2.60
2017-10-03T13:45:49.045Z,2.80
2017-10-03T13:47:52.464Z,2.53
2017-10-03T13:49:55.260Z,3.40
2017-10-03T13:51:58.029Z,2.30
2017-10-03T13:54:01.069Z,2.73
2017-10-03T13:56:03.751Z,2.53
2017-10-03T13:58:06.393Z,4.13
2017-10-03T14:00:09.157Z,2.63
2017-10-03T14:02:11.846Z,3.10
2017-10-03T14:04:14.583Z,3.40
2017-10-03T14:06:17.372Z,3.20
2017-10-03T14:08:20.164Z,4.70
2017-10-03T14:10:22.880Z,4.17
2017-10-03T14:12:25.611Z,3.53
2017-10-03T14:14:28.422Z,3.73
2017-10-03T14:16:31.153Z,4.00
2017-10-03T14:18:33.834Z,3.00
2017-10-03T14:20:36.598Z,3.53
2017-10-03T14:22:40.038Z,2.70
2017-10-03T14:24:42.720Z,2.70
2017-10-03T14:26:45.451Z,3.57
2017-10-03T14:28:50.100Z,3.23
2017-10-03T14:30:52.806Z,3.73
2017-10-03T14:32:55.601Z,4.30
2017-10-03T14:34:58.366Z,3.53
2017-10-03T14:37:01.054Z,3.27
2017-10-03T14:39:03.804Z,4.03
2017-10-03T14:41:06.557Z,4.77
2017-10-03T14:43:09.222Z,2.93
2017-10-03T14:45:11.918Z,3.93
2017-10-03T14:47:14.655Z,3.13
2017-10-03T14:49:18.083Z,4.23
2017-10-03T14:51:20.770Z,3.93
2017-10-03T14:53:23.472Z,3.83
2017-10-03T14:55:26.130Z,3.23
2017-10-03T14:57:28.984Z,3.17
2017-10-03T14:59:31.666Z,3.70
2017-10-03T15:01:34.332Z,4.87
2017-10-03T15:03:37.101Z,3.50
2017-10-03T15:05:40.531Z,3.33
2017-10-03T15:07:43.230Z,3.73
2017-10-03T15:09:45.990Z,4.27
2017-10-03T15:11:48.641Z,3.27
2017-10-03T15:13:51.303Z,3.00
2017-10-03T15:15:53.996Z,3.03
2017-10-03T15:17:56.773Z,2.87
2017-10-03T15:19:59.554Z,2.80
2017-10-03T15:22:02.368Z,3.53
2017-10-03T15:24:05.259Z,3.37
2017-10-03T15:26:07.992Z,2.60
2017-10-03T15:28:10.683Z,2.93
2017-10-03T15:30:13.341Z,3.07
2017-10-03T15:32:15.996Z,3.77
2017-10-03T15:34:19.433Z,3.87
2017-10-03T15:36:22.198Z,4.87
2017-10-03T15:38:24.978Z,13.60
2017-10-03T15:40:27.688Z,3.97
2017-10-03T15:42:30.370Z,4.30
2017-10-03T15:44:33.085Z,3.70
2017-10-03T15:46:36.498Z,4.83
2017-10-03T15:48:39.202Z,5.57
2017-10-03T15:50:42.665Z,4.57
2017-10-03T15:52:45.380Z,5.00
2017-10-03T15:54:48.040Z,4.43
2017-10-03T15:56:50.986Z,4.80
2017-10-03T15:58:53.902Z,3.83
2017-10-03T16:00:56.579Z,3.43
2017-10-03T16:02:59.291Z,3.47
2017-10-03T16:05:01.989Z,2.60
2017-10-03T16:07:05.505Z,3.03
2017-10-03T16:09:08.172Z,3.50
2017-10-03T16:11:10.963Z,3.50
2017-10-03T16:13:13.748Z,3.70
2017-10-03T16:15:16.396Z,3.50
2017-10-03T16:17:19.995Z,3.70
2017-10-03T16:19:23.422Z,3.53
2017-10-03T16:21:26.502Z,3.93
2017-10-03T16:23:29.466Z,3.33
2017-10-03T16:25:32.163Z,3.50
2017-10-03T16:27:34.908Z,3.87
2017-10-03T16:29:38.351Z,3.50
2017-10-03T16:31:41.032Z,3.30
2017-10-03T16:33:43.720Z,4.87
2017-10-03T16:35:46.415Z,3.77
2017-10-03T16:37:49.876Z,3.87
2017-10-03T16:39:52.540Z,4.17
2017-10-03T16:41:56.018Z,4.57
2017-10-03T16:43:58.795Z,4.50
2017-10-03T16:46:01.467Z,5.07
2017-10-03T16:48:04.256Z,4.30
2017-10-03T16:50:06.904Z,3.80
2017-10-03T16:52:10.381Z,4.87
2017-10-03T16:54:13.120Z,4.90
2017-10-03T16:56:15.786Z,4.40
2017-10-03T16:58:18.510Z,4.20
2017-10-03T17:00:21.196Z,4.97
2017-10-03T17:02:24.679Z,5.00
2017-10-03T17:04:28.072Z,5.33
2017-10-03T17:06:30.769Z,4.30
2017-10-03T17:08:34.234Z,5.27
2017-10-03T17:10:36.905Z,5.27
2017-10-03T17:12:39.759Z,4.60
2017-10-03T17:14:42.416Z,7.53
2017-10-03T17:16:45.097Z,7.87
2017-10-03T17:18:48.085Z,6.90
2017-10-03T17:20:50.747Z,5.77
2017-10-03T17:22:53.575Z,5.03
2017-10-03T17:24:56.280Z,5.03
2017-10-03T17:26:59.697Z,5.33
2017-10-03T17:29:02.385Z,5.20
2017-10-03T17:31:05.070Z,5.00
2017-10-03T17:33:07.731Z,5.20
2017-10-03T17:35:10.424Z,5.47
2017-10-03T17:37:13.223Z,5.90
2017-10-03T17:39:16.014Z,5.60
2017-10-03T17:41:18.699Z,5.73
2017-10-03T17:43:21.377Z,6.97
2017-10-03T17:45:24.064Z,6.23
2017-10-03T17:47:27.536Z,5.23
2017-10-03T17:49:30.216Z,5.93
2017-10-03T17:51:32.921Z,4.80
2017-10-03T17:53:36.346Z,4.50
2017-10-03T17:55:39.222Z,5.10
2017-10-03T17:57:41.904Z,5.00
2017-10-03T17:59:44.586Z,5.20
2017-10-03T18:01:47.378Z,4.33
2017-10-03T18:03:50.038Z,5.63
2017-10-03T18:05:52.869Z,21.47
2017-10-03T18:07:55.569Z,9.00
2017-10-03T18:09:58.996Z,15.47
2017-10-03T18:12:01.722Z,13.53
2017-10-03T18:14:05.175Z,11.27
2017-10-03T18:16:07.885Z,11.07
2017-10-03T18:18:10.811Z,5.90
2017-10-03T18:20:13.520Z,5.23
2017-10-03T18:22:16.215Z,5.33
2017-10-03T18:24:18.923Z,7.60
2017-10-03T18:26:21.575Z,4.43
2017-10-03T18:28:24.296Z,4.50
2017-10-03T18:30:26.983Z,4.00
2017-10-03T18:32:29.662Z,4.07
2017-10-03T18:34:32.335Z,3.87
2017-10-03T18:36:35.023Z,3.60
2017-10-03T18:38:37.707Z,3.70
2017-10-03T18:40:40.387Z,3.37
2017-10-03T18:42:43.129Z,3.27
2017-10-03T18:44:45.840Z,4.63
2017-10-03T18:46:49.642Z,3.80
2017-10-03T18:48:52.393Z,3.60
2017-10-03T18:50:55.081Z,3.63
2017-10-03T18:52:57.960Z,3.57
2017-10-03T18:55:00.720Z,3.47
2017-10-03T18:57:03.361Z,3.40
2017-10-03T18:59:06.856Z,2.80
2017-10-03T19:01:10.309Z,3.07
2017-10-03T19:03:12.969Z,3.33
2017-10-03T19:05:15.710Z,3.10
2017-10-03T19:07:19.125Z,4.13
2017-10-03T19:09:21.938Z,2.97
2017-10-03T19:11:24.812Z,3.40
2017-10-03T19:13:27.575Z,2.97
2017-10-03T19:15:30.339Z,3.73
2017-10-03T19:17:33.155Z,3.50
2017-10-03T19:19:35.869Z,4.37
2017-10-03T19:21:38.552Z,4.97
2017-10-03T19:23:42.012Z,4.30
2017-10-03T19:25:44.764Z,4.57
2017-10-03T19:27:47.416Z,3.60
2017-10-03T19:29:50.418Z,3.33
2017-10-03T19:31:53.195Z,4.23
2017-10-03T19:33:55.844Z,4.50
2017-10-03T19:35:59.403Z,4.50
2017-10-03T19:38:02.041Z,5.00
2017-10-03T19:40:04.740Z,5.73
2017-10-03T19:42:07.524Z,4.13
2017-10-03T19:44:10.187Z,4.30
2017-10-03T19:46:12.829Z,3.80
2017-10-03T19:48:16.266Z,3.73
2017-10-03T19:50:19.022Z,3.83
2017-10-03T19:52:21.776Z,3.80
2017-10-03T19:54:25.210Z,3.73
2017-10-03T19:56:27.914Z,4.03
2017-10-03T19:58:30.557Z,4.43
2017-10-03T20:00:33.248Z,3.63
2017-10-03T20:02:35.917Z,4.67
2017-10-03T20:04:38.598Z,4.00
2017-10-03T20:06:41.352Z,3.10
2017-10-03T20:08:44.025Z,3.90
2017-10-03T20:10:46.688Z,4.40
2017-10-03T20:12:49.455Z,8.63
2017-10-03T20:14:52.925Z,6.33
2017-10-03T20:16:55.586Z,6.33
2017-10-03T20:18:58.287Z,4.47
2017-10-03T20:21:01.006Z,5.07
2017-10-03T20:23:03.686Z,4.10
2017-10-03T20:25:06.409Z,4.53
2017-10-03T20:27:09.089Z,5.00
2017-10-03T20:29:11.755Z,4.47
2017-10-03T20:31:14.448Z,3.77
2017-10-03T20:33:17.863Z,4.40
2017-10-03T20:35:21.370Z,4.43
2017-10-03T20:37:24.024Z,3.93
2017-10-03T20:39:27.504Z,4.10
2017-10-03T20:41:30.222Z,3.47
2017-10-03T20:43:32.944Z,3.97
2017-10-03T20:45:35.615Z,4.00
2017-10-03T20:47:38.322Z,4.03
2017-10-03T20:49:41.820Z,4.20
2017-10-03T20:51:45.220Z,3.50
2017-10-03T20:53:48.729Z,3.90
2017-10-03T20:55:51.519Z,3.37
2017-10-03T20:57:54.178Z,4.10
2017-10-03T20:59:56.884Z,4.27
2017-10-03T21:01:59.563Z,4.07
2017-10-03T21:04:02.220Z,4.17
2017-10-03T21:06:04.883Z,4.20
2017-10-03T21:08:07.568Z,4.13
2017-10-03T21:10:10.235Z,4.30
2017-10-03T21:12:12.905Z,4.30
2017-10-03T21:14:16.362Z,4.60
2017-10-03T21:16:19.084Z,4.43
2017-10-03T21:18:21.890Z,4.40
2017-10-03T21:20:24.536Z,3.90
2017-10-03T21:22:27.210Z,3.80
2017-10-03T21:24:30.645Z,5.00
2017-10-03T21:26:33.376Z,4.30
2017-10-03T21:28:37.529Z,4.10
2017-10-03T21:30:40.196Z,4.03
2017-10-03T21:32:42.840Z,4.40
2017-10-03T21:34:46.283Z,4.57
2017-10-03T21:36:49.167Z,3.90
2017-10-03T21:38:51.915Z,5.27
2017-10-03T21:40:54.574Z,3.90
2017-10-03T21:43:09.970Z,4.23
2017-10-03T21:45:12.745Z,3.40
2017-10-03T21:47:15.419Z,4.80
2017-10-03T21:49:18.253Z,5.43
2017-10-03T21:51:21.002Z,4.93
2017-10-03T21:53:23.666Z,5.83
2017-10-03T21:55:26.430Z,4.80
2017-10-03T21:57:29.091Z,6.03
2017-10-03T21:59:31.733Z,4.87
2017-10-03T22:01:34.534Z,4.57
2017-10-03T22:03:37.967Z,5.57
2017-10-03T22:05:40.632Z,5.50
2017-10-03T22:07:43.298Z,5.63
2017-10-03T22:09:46.087Z,6.03
2017-10-03T22:11:48.756Z,4.90
2017-10-03T22:13:51.437Z,5.17
2017-10-03T22:15:54.116Z,5.50
2017-10-03T22:17:56.785Z,5.03
2017-10-03T22:19:59.475Z,5.20
2017-10-03T22:22:02.329Z,5.70
2017-10-03T22:24:04.972Z,4.30
2017-10-03T22:26:07.654Z,4.87
2017-10-03T22:28:10.403Z,5.47
2017-10-03T22:30:13.058Z,5.40
2017-10-03T22:32:15.977Z,5.70
2017-10-03T22:34:18.710Z,5.63
2017-10-03T22:36:21.369Z,5.30
2017-10-03T22:38:24.060Z,5.80
2017-10-03T22:40:26.719Z,5.97
2017-10-03T22:42:30.550Z,6.07
2017-10-03T22:44:33.238Z,6.00
2017-10-03T22:46:35.886Z,6.10
2017-10-03T22:48:38.787Z,5.20
2017-10-03T22:50:41.481Z,5.07
2017-10-03T22:52:44.232Z,4.83
2017-10-03T22:54:47.129Z,5.83
2017-10-03T22:56:49.806Z,5.37
2017-10-03T22:58:52.473Z,5.33
2017-10-03T23:00:55.136Z,5.70
2017-10-03T23:02:57.805Z,4.40
2017-10-03T23:05:00.486Z,5.07
2017-10-03T23:07:03.139Z,5.77
2017-10-03T23:09:06.610Z,6.00
2017-10-03T23:11:09.262Z,5.63
2017-10-03T23:13:11.927Z,5.10
2017-10-03T23:15:14.831Z,5.87
2017-10-03T23:17:17.496Z,4.43
2017-10-03T23:19:20.169Z,5.43
2017-10-03T23:21:22.840Z,4.23
2017-10-03T23:23:25.484Z,5.00
2017-10-03T23:25:28.193Z,5.13
2017-10-03T23:27:30.893Z,5.23
2017-10-03T23:29:33.550Z,5.10
2017-10-03T23:31:36.320Z,5.60
2017-10-03T23:33:38.975Z,5.10
2017-10-03T23:35:41.703Z,4.90
2017-10-03T23:37:44.536Z,5.70
2017-10-03T23:39:47.195Z,4.10
2017-10-03T23:41:49.888Z,4.93
2017-10-03T23:43:52.798Z,4.80
2017-10-03T23:45:58.784Z,4.63
2017-10-03T23:48:02.320Z,4.93
2017-10-03T23:50:05.008Z,4.60
2017-10-03T23:52:08.485Z,5.20
2017-10-03T23:54:11.129Z,4.47
2017-10-03T23:56:13.852Z,4.23
2017-10-03T23:58:16.501Z,5.40
